Time;durP1;ratioP1;P1;durP2;ratioP2;P2;SDS_P1;SDS_P2;PMS_P1;PMS_P2;Temp;Humidity;BMP_temperature;BMP_pressure;BME280_temperature;BME280_humidity;BME280_pressure;Samples;Min_cycle;Max_cycle;Signal;HPM_P1;HPM_P2
2022/10/19 00:00:31;;;;;;;1.15;1.05;;;;;;;;;;5140728;27;20283;-70
2022/10/19 00:02:59;;;;;;;1.92;1.20;;;;;;;;;;5140847;27;20224;-68
2022/10/19 00:05:26;;;;;;;1.23;1.05;;;;;;;;;;5141396;27;20198;-68
2022/10/19 00:07:54;;;;;;;1.30;1.20;;;;;;;;;;5141399;27;20210;-69
2022/10/19 00:10:22;;;;;;;1.27;1.17;;;;;;;;;;5141266;27;20452;-68
2022/10/19 00:12:49;;;;;;;1.45;1.10;;;;;;;;;;5141379;27;20210;-69
2022/10/19 00:15:18;;;;;;;0.90;0.90;;;;;;;;;;5141324;27;20546;-69
2022/10/19 00:17:46;;;;;;;1.30;1.20;;;;;;;;;;5141107;27;20221;-68
2022/10/19 00:20:13;;;;;;;1.20;1.10;;;;;;;;;;5136262;27;20326;-68
2022/10/19 00:22:41;;;;;;;0.90;0.90;;;;;;;;;;5137289;27;20595;-68
2022/10/19 00:25:09;;;;;;;2.13;1.33;;;;;;;;;;5141002;27;20261;-68
2022/10/19 00:27:37;;;;;;;1.70;1.20;;;;;;;;;;5140804;27;20234;-68
2022/10/19 00:30:05;;;;;;;1.40;1.10;;;;;;;;;;5140984;27;20233;-68
2022/10/19 00:32:34;;;;;;;1.20;1.10;;;;;;;;;;5141053;27;20204;-68
2022/10/19 00:35:02;;;;;;;1.25;1.15;;;;;;;;;;5141391;27;20554;-68
2022/10/19 00:37:30;;;;;;;1.10;1.10;;;;;;;;;;5140619;27;20202;-69
2022/10/19 00:39:58;;;;;;;1.02;0.98;;;;;;;;;;5140813;27;20535;-68
2022/10/19 00:42:25;;;;;;;1.48;1.08;;;;;;;;;;5140864;27;20210;-67
2022/10/19 00:45:04;;;;;;;1.20;1.10;;;;;;;;;;5140674;27;20233;-68
2022/10/19 00:47:33;;;;;;;1.00;1.00;;;;;;;;;;5140427;27;20284;-68
2022/10/19 00:50:01;;;;;;;0.98;0.95;;;;;;;;;;5139901;27;20305;-68
2022/10/19 00:52:28;;;;;;;1.15;1.05;;;;;;;;;;5140412;27;20228;-68
2022/10/19 00:54:57;;;;;;;1.13;1.02;;;;;;;;;;5140596;27;20301;-68
2022/10/19 00:57:27;;;;;;;1.15;0.90;;;;;;;;;;5139516;27;20608;-69
2022/10/19 00:59:55;;;;;;;1.00;0.90;;;;;;;;;;5139928;27;20206;-68
2022/10/19 01:02:22;;;;;;;1.10;1.00;;;;;;;;;;5140186;27;20206;-68
2022/10/19 01:04:52;;;;;;;1.20;1.10;;;;;;;;;;5139946;27;20553;-69
2022/10/19 01:07:20;;;;;;;1.05;1.05;;;;;;;;;;5139910;27;20273;-68
2022/10/19 01:09:48;;;;;;;1.20;1.10;;;;;;;;;;5140222;27;20237;-68
2022/10/19 01:12:22;;;;;;;1.10;1.00;;;;;;;;;;5139880;27;20297;-68
2022/10/19 01:14:55;;;;;;;1.08;1.00;;;;;;;;;;5140228;27;20202;-69
2022/10/19 01:17:29;;;;;;;1.02;0.93;;;;;;;;;;5139448;27;20637;-69
2022/10/19 01:20:16;;;;;;;0.90;0.80;;;;;;;;;;5139448;27;20244;-68
2022/10/19 01:22:49;;;;;;;0.95;0.90;;;;;;;;;;5139615;27;20292;-68
2022/10/19 01:25:22;;;;;;;0.90;0.90;;;;;;;;;;5139960;27;20241;-68
2022/10/19 01:27:54;;;;;;;0.90;0.90;;;;;;;;;;5139555;27;20222;-69
2022/10/19 01:30:32;;;;;;;1.50;1.10;;;;;;;;;;5139919;27;20255;-68
2022/10/19 01:33:04;;;;;;;0.95;0.90;;;;;;;;;;5139725;27;20206;-69
2022/10/19 01:35:35;;;;;;;1.17;1.08;;;;;;;;;;5139221;27;20202;-68
2022/10/19 01:38:06;;;;;;;1.00;1.00;;;;;;;;;;5139298;27;20649;-68
2022/10/19 01:40:38;;;;;;;1.52;1.00;;;;;;;;;;5139068;27;20246;-68
2022/10/19 01:43:10;;;;;;;0.90;0.90;;;;;;;;;;5139313;27;20249;-69
2022/10/19 01:45:41;;;;;;;1.02;0.90;;;;;;;;;;5139465;27;20202;-69
2022/10/19 01:48:11;;;;;;;0.93;0.93;;;;;;;;;;5139117;27;20285;-68
2022/10/19 01:50:41;;;;;;;0.80;0.80;;;;;;;;;;5139436;27;20293;-68
2022/10/19 01:53:11;;;;;;;1.20;1.10;;;;;;;;;;5139814;27;20296;-69
2022/10/19 01:55:41;;;;;;;0.90;0.90;;;;;;;;;;5139768;27;20194;-68
2022/10/19 01:58:10;;;;;;;0.80;0.80;;;;;;;;;;5139245;27;20537;-68
2022/10/19 02:00:40;;;;;;;1.38;0.93;;;;;;;;;;5137874;27;20234;-68
2022/10/19 02:03:09;;;;;;;0.95;0.82;;;;;;;;;;5139187;27;20241;-68
2022/10/19 02:05:37;;;;;;;0.80;0.80;;;;;;;;;;5139300;27;20598;-68
2022/10/19 02:08:07;;;;;;;1.05;0.80;;;;;;;;;;5139158;27;20293;-68
2022/10/19 02:10:36;;;;;;;0.75;0.75;;;;;;;;;;5139021;27;20199;-69
2022/10/19 02:13:04;;;;;;;0.90;0.90;;;;;;;;;;5138965;28;20573;-68
2022/10/19 02:15:32;;;;;;;1.05;1.05;;;;;;;;;;5138897;28;20666;-68
2022/10/19 02:18:02;;;;;;;1.13;0.80;;;;;;;;;;5139395;28;20255;-68
2022/10/19 02:20:30;;;;;;;0.90;0.90;;;;;;;;;;5138844;28;20477;-69
2022/10/19 02:22:57;;;;;;;0.70;0.70;;;;;;;;;;5139015;28;20293;-69
2022/10/19 02:25:25;;;;;;;1.02;0.82;;;;;;;;;;5139277;28;20249;-68
2022/10/19 02:27:53;;;;;;;0.70;0.70;;;;;;;;;;5138205;28;20233;-68
2022/10/19 02:30:21;;;;;;;1.00;0.90;;;;;;;;;;5138991;28;20233;-68
2022/10/19 02:32:48;;;;;;;0.82;0.82;;;;;;;;;;5139062;28;20228;-68
2022/10/19 02:35:17;;;;;;;0.63;0.63;;;;;;;;;;5138841;28;20251;-69
2022/10/19 02:37:45;;;;;;;0.82;0.82;;;;;;;;;;5138214;28;20190;-69
2022/10/19 02:40:13;;;;;;;0.77;0.77;;;;;;;;;;5138537;28;20277;-68
2022/10/19 02:42:42;;;;;;;0.90;0.90;;;;;;;;;;5138695;28;20236;-68
2022/10/19 02:45:13;;;;;;;0.70;0.70;;;;;;;;;;5138620;28;20249;-69
2022/10/19 02:47:43;;;;;;;0.82;0.82;;;;;;;;;;5138979;28;20562;-69
2022/10/19 02:50:11;;;;;;;0.70;0.70;;;;;;;;;;5138507;28;20238;-69
2022/10/19 02:52:40;;;;;;;0.70;0.70;;;;;;;;;;5138579;28;20281;-68
2022/10/19 02:55:09;;;;;;;0.80;0.80;;;;;;;;;;5138453;28;20202;-68
2022/10/19 02:57:36;;;;;;;0.82;0.82;;;;;;;;;;5138077;28;20194;-69
2022/10/19 03:00:05;;;;;;;0.85;0.85;;;;;;;;;;5138794;28;20245;-69
2022/10/19 03:02:33;;;;;;;0.80;0.80;;;;;;;;;;5131027;28;20222;-68
2022/10/19 03:05:00;;;;;;;1.27;0.80;;;;;;;;;;5137702;28;20267;-69
2022/10/19 03:07:28;;;;;;;0.70;0.70;;;;;;;;;;5138602;28;20282;-68
2022/10/19 03:09:57;;;;;;;0.60;0.60;;;;;;;;;;5138424;28;20279;-69
2022/10/19 03:12:24;;;;;;;0.63;0.63;;;;;;;;;;5139616;27;20287;-69
2022/10/19 03:14:52;;;;;;;0.73;0.73;;;;;;;;;;5142013;27;20226;-68
2022/10/19 03:17:19;;;;;;;1.15;0.70;;;;;;;;;;5141811;27;20824;-70
2022/10/19 03:19:47;;;;;;;0.70;0.70;;;;;;;;;;5141816;27;20267;-68
2022/10/19 03:22:14;;;;;;;0.60;0.60;;;;;;;;;;5141873;27;20277;-68
2022/10/19 03:24:42;;;;;;;0.80;0.80;;;;;;;;;;5141753;27;20233;-69
2022/10/19 03:27:11;;;;;;;0.65;0.65;;;;;;;;;;5141672;27;20325;-68
2022/10/19 03:29:38;;;;;;;0.70;0.70;;;;;;;;;;5120947;28;20211;-69
2022/10/19 03:32:06;;;;;;;0.80;0.70;;;;;;;;;;5121353;28;20218;-69
2022/10/19 03:34:33;;;;;;;0.65;0.65;;;;;;;;;;5121402;28;20571;-68
2022/10/19 03:37:00;;;;;;;0.80;0.80;;;;;;;;;;5121252;28;20240;-68
2022/10/19 03:39:28;;;;;;;0.77;0.77;;;;;;;;;;5140718;27;20309;-69
2022/10/19 03:41:55;;;;;;;0.70;0.70;;;;;;;;;;5141561;27;20610;-68
2022/10/19 03:44:24;;;;;;;0.70;0.70;;;;;;;;;;5141464;27;20210;-69
2022/10/19 03:46:52;;;;;;;0.60;0.60;;;;;;;;;;5141667;27;20202;-68
2022/10/19 03:49:19;;;;;;;0.90;0.90;;;;;;;;;;5140961;27;20263;-68
2022/10/19 03:51:48;;;;;;;0.73;0.73;;;;;;;;;;5141459;27;20198;-69
2022/10/19 03:54:17;;;;;;;0.60;0.60;;;;;;;;;;5141153;27;20263;-68
2022/10/19 03:56:44;;;;;;;0.70;0.70;;;;;;;;;;5140846;27;20283;-68
2022/10/19 03:59:13;;;;;;;1.10;1.00;;;;;;;;;;5140670;27;20202;-68
2022/10/19 04:01:44;;;;;;;0.70;0.70;;;;;;;;;;5140263;27;20214;-69
2022/10/19 04:04:13;;;;;;;0.68;0.68;;;;;;;;;;5140719;27;20213;-69
2022/10/19 04:06:42;;;;;;;0.88;0.80;;;;;;;;;;5140718;27;20198;-69
2022/10/19 04:09:11;;;;;;;0.77;0.77;;;;;;;;;;5140778;27;20209;-68
2022/10/19 04:11:39;;;;;;;0.80;0.80;;;;;;;;;;5140659;27;20308;-68
2022/10/19 04:14:06;;;;;;;0.80;0.80;;;;;;;;;;5140985;27;20210;-68
2022/10/19 04:16:34;;;;;;;0.70;0.70;;;;;;;;;;5140366;27;20259;-69
2022/10/19 04:19:03;;;;;;;0.70;0.70;;;;;;;;;;5139943;27;20282;-69
2022/10/19 04:21:31;;;;;;;0.98;0.90;;;;;;;;;;5139310;27;20269;-69
2022/10/19 04:23:59;;;;;;;0.75;0.75;;;;;;;;;;5138892;27;20265;-69
2022/10/19 04:26:27;;;;;;;0.70;0.70;;;;;;;;;;5138575;27;20210;-69
2022/10/19 04:28:54;;;;;;;0.80;0.80;;;;;;;;;;5139783;27;20203;-68
2022/10/19 04:31:22;;;;;;;0.90;0.90;;;;;;;;;;5139422;27;20290;-69
2022/10/19 04:33:50;;;;;;;0.70;0.70;;;;;;;;;;5138735;27;20263;-68
2022/10/19 04:36:19;;;;;;;1.00;0.90;;;;;;;;;;5137415;27;20285;-68
2022/10/19 04:38:46;;;;;;;0.90;0.90;;;;;;;;;;5139199;27;20494;-69
2022/10/19 04:41:15;;;;;;;0.70;0.70;;;;;;;;;;5139312;27;20554;-69
2022/10/19 04:43:44;;;;;;;0.95;0.93;;;;;;;;;;5139929;27;20266;-69
2022/10/19 04:46:13;;;;;;;0.80;0.80;;;;;;;;;;5139200;27;20198;-68
2022/10/19 04:48:41;;;;;;;1.02;1.02;;;;;;;;;;5139420;27;20202;-69
2022/10/19 04:51:08;;;;;;;0.80;0.80;;;;;;;;;;5130485;27;20301;-69
2022/10/19 04:53:38;;;;;;;0.90;0.90;;;;;;;;;;5138720;27;20480;-68
2022/10/19 04:56:06;;;;;;;0.82;0.82;;;;;;;;;;5138766;27;20281;-68
2022/10/19 04:58:34;;;;;;;1.02;0.80;;;;;;;;;;5139343;27;20586;-69
2022/10/19 05:01:07;;;;;;;1.55;0.90;;;;;;;;;;5138868;27;20255;-69
2022/10/19 05:03:35;;;;;;;0.88;0.80;;;;;;;;;;5139149;27;20292;-68
2022/10/19 05:06:02;;;;;;;1.05;1.00;;;;;;;;;;5138853;27;20241;-69
2022/10/19 05:08:30;;;;;;;0.90;0.90;;;;;;;;;;5139094;27;20293;-68
2022/10/19 05:11:02;;;;;;;0.93;0.90;;;;;;;;;;5138747;27;20217;-68
2022/10/19 05:13:30;;;;;;;0.80;0.80;;;;;;;;;;5138789;27;20256;-68
2022/10/19 05:15:57;;;;;;;1.15;0.80;;;;;;;;;;5138571;27;20558;-68
2022/10/19 05:18:25;;;;;;;0.90;0.90;;;;;;;;;;5138197;27;20555;-69
2022/10/19 05:20:52;;;;;;;0.93;0.93;;;;;;;;;;5137543;27;20233;-69
2022/10/19 05:23:20;;;;;;;1.20;1.10;;;;;;;;;;5138541;27;20717;-68
2022/10/19 05:25:48;;;;;;;1.10;0.95;;;;;;;;;;5137932;27;20245;-68
2022/10/19 05:28:17;;;;;;;1.02;0.98;;;;;;;;;;5138459;27;20587;-68
2022/10/19 05:30:44;;;;;;;1.05;0.95;;;;;;;;;;5138388;27;20339;-69
2022/10/19 05:33:12;;;;;;;1.00;0.98;;;;;;;;;;5138332;27;20259;-68
2022/10/19 05:35:39;;;;;;;1.00;1.00;;;;;;;;;;5137860;27;20202;-68
2022/10/19 05:38:06;;;;;;;0.70;0.70;;;;;;;;;;5137633;27;20202;-69
2022/10/19 05:40:34;;;;;;;0.88;0.88;;;;;;;;;;5137780;27;20625;-68
2022/10/19 05:43:02;;;;;;;0.90;0.90;;;;;;;;;;5137724;27;20230;-68
2022/10/19 05:45:31;;;;;;;0.80;0.80;;;;;;;;;;5137501;27;20285;-69
2022/10/19 05:47:59;;;;;;;0.80;0.80;;;;;;;;;;5137641;27;20202;-70
2022/10/19 05:50:27;;;;;;;0.95;0.82;;;;;;;;;;5137917;27;20213;-68
2022/10/19 05:52:55;;;;;;;0.80;0.80;;;;;;;;;;5138019;27;20230;-68
2022/10/19 05:55:22;;;;;;;1.00;0.90;;;;;;;;;;5137248;27;20293;-68
2022/10/19 05:57:49;;;;;;;0.85;0.85;;;;;;;;;;5137883;27;20245;-68
2022/10/19 06:00:17;;;;;;;1.00;1.00;;;;;;;;;;5137295;27;20271;-68
2022/10/19 06:02:46;;;;;;;1.48;0.90;;;;;;;;;;5137339;27;20276;-69
2022/10/19 06:05:13;;;;;;;0.90;0.90;;;;;;;;;;5136871;27;20228;-68
2022/10/19 06:07:41;;;;;;;1.42;0.90;;;;;;;;;;5136790;27;20202;-68
2022/10/19 06:10:09;;;;;;;1.08;0.98;;;;;;;;;;5137431;27;20602;-68
2022/10/19 06:12:37;;;;;;;0.70;0.70;;;;;;;;;;5137416;27;20203;-68
2022/10/19 06:15:04;;;;;;;0.80;0.80;;;;;;;;;;5137162;28;20563;-68
2022/10/19 06:17:32;;;;;;;0.82;0.82;;;;;;;;;;5137381;28;20297;-67
2022/10/19 06:20:01;;;;;;;0.80;0.80;;;;;;;;;;5137363;28;20202;-68
2022/10/19 06:22:28;;;;;;;0.80;0.80;;;;;;;;;;5136625;28;20415;-68
2022/10/19 06:24:56;;;;;;;0.85;0.80;;;;;;;;;;5136456;28;20237;-68
2022/10/19 06:27:23;;;;;;;0.82;0.70;;;;;;;;;;5136134;28;20238;-68
2022/10/19 06:29:51;;;;;;;0.77;0.75;;;;;;;;;;5137251;28;20266;-70
2022/10/19 06:32:18;;;;;;;0.93;0.82;;;;;;;;;;5136913;28;20237;-69
2022/10/19 06:34:46;;;;;;;0.80;0.80;;;;;;;;;;5136843;28;20198;-71
2022/10/19 06:37:15;;;;;;;0.90;0.90;;;;;;;;;;5136365;28;20210;-70
2022/10/19 06:39:42;;;;;;;1.42;0.80;;;;;;;;;;5136722;28;20548;-68
2022/10/19 06:42:10;;;;;;;0.93;0.80;;;;;;;;;;5136569;28;20257;-68
2022/10/19 06:44:37;;;;;;;0.90;0.90;;;;;;;;;;5136288;28;20297;-68
2022/10/19 06:47:05;;;;;;;1.05;0.98;;;;;;;;;;5136177;27;20206;-68
2022/10/19 06:49:34;;;;;;;1.17;1.05;;;;;;;;;;5140292;27;20306;-68
2022/10/19 06:52:04;;;;;;;0.80;0.80;;;;;;;;;;5140355;27;20193;-68
2022/10/19 06:54:33;;;;;;;0.85;0.85;;;;;;;;;;5139648;27;20198;-69
2022/10/19 06:57:00;;;;;;;0.82;0.82;;;;;;;;;;5140762;27;20688;-68
2022/10/19 06:59:28;;;;;;;0.85;0.85;;;;;;;;;;5140421;27;20256;-68
2022/10/19 07:01:55;;;;;;;1.35;0.63;;;;;;;;;;5140624;27;20621;-67
2022/10/19 07:04:23;;;;;;;0.80;0.80;;;;;;;;;;5140018;27;20289;-68
2022/10/19 07:06:50;;;;;;;0.80;0.73;;;;;;;;;;5140557;27;20279;-68
2022/10/19 07:09:18;;;;;;;1.80;0.70;;;;;;;;;;5140136;27;20252;-68
2022/10/19 07:11:47;;;;;;;0.90;0.90;;;;;;;;;;5140261;27;20560;-68
2022/10/19 07:14:15;;;;;;;0.88;0.85;;;;;;;;;;5139230;27;20230;-68
2022/10/19 07:16:42;;;;;;;0.95;0.90;;;;;;;;;;5139832;27;20202;-69
2022/10/19 07:19:10;;;;;;;0.90;0.90;;;;;;;;;;5139757;27;20202;-69
2022/10/19 07:21:40;;;;;;;1.33;0.80;;;;;;;;;;5140948;27;20217;-69
2022/10/19 07:24:08;;;;;;;0.70;0.70;;;;;;;;;;5139424;27;20214;-68
2022/10/19 07:26:35;;;;;;;0.98;0.80;;;;;;;;;;5139405;27;20265;-69
2022/10/19 07:29:05;;;;;;;0.77;0.77;;;;;;;;;;5140051;27;20285;-69
2022/10/19 07:31:33;;;;;;;0.80;0.80;;;;;;;;;;5139573;27;20226;-70
2022/10/19 07:34:01;;;;;;;0.73;0.68;;;;;;;;;;5138379;27;20306;-70
2022/10/19 07:36:29;;;;;;;1.73;0.77;;;;;;;;;;5138292;27;20265;-68
2022/10/19 07:38:57;;;;;;;0.80;0.80;;;;;;;;;;5139680;27;20571;-68
2022/10/19 07:41:26;;;;;;;0.80;0.80;;;;;;;;;;5139234;27;20289;-69
2022/10/19 07:43:56;;;;;;;0.80;0.77;;;;;;;;;;5138794;27;20297;-69
2022/10/19 07:46:27;;;;;;;0.80;0.80;;;;;;;;;;5139630;27;20217;-69
2022/10/19 07:48:55;;;;;;;1.08;0.80;;;;;;;;;;5138371;27;20199;-68
2022/10/19 07:51:23;;;;;;;0.80;0.80;;;;;;;;;;5139082;27;20302;-68
2022/10/19 07:53:51;;;;;;;0.70;0.70;;;;;;;;;;5138515;27;20627;-68
2022/10/19 07:56:19;;;;;;;0.88;0.73;;;;;;;;;;5138975;27;20210;-68
2022/10/19 07:58:47;;;;;;;1.00;0.90;;;;;;;;;;5139851;27;20253;-68
2022/10/19 08:01:15;;;;;;;1.02;0.90;;;;;;;;;;5139234;27;20194;-68
2022/10/19 08:03:44;;;;;;;1.00;0.90;;;;;;;;;;5138536;27;20285;-68
2022/10/19 08:06:12;;;;;;;1.02;0.88;;;;;;;;;;5138854;27;20206;-69
2022/10/19 08:08:41;;;;;;;0.80;0.80;;;;;;;;;;5139174;27;20228;-69
2022/10/19 08:11:09;;;;;;;0.90;0.90;;;;;;;;;;5138428;27;20206;-68
2022/10/19 08:13:36;;;;;;;1.55;0.80;;;;;;;;;;5138601;27;20586;-68
2022/10/19 08:16:04;;;;;;;1.67;0.82;;;;;;;;;;5135068;27;20203;-69
2022/10/19 08:18:32;;;;;;;2.45;0.98;;;;;;;;;;5133806;27;20619;-68
2022/10/19 08:21:03;;;;;;;1.63;0.77;;;;;;;;;;5138019;27;20297;-67
2022/10/19 08:23:30;;;;;;;1.88;0.93;;;;;;;;;;5137638;27;20233;-67
2022/10/19 08:25:58;;;;;;;1.73;0.90;;;;;;;;;;5138534;27;20818;-67
2022/10/19 08:28:26;;;;;;;2.00;1.00;;;;;;;;;;5137857;27;20234;-67
2022/10/19 08:30:57;;;;;;;1.40;0.90;;;;;;;;;;5138615;27;20251;-69
2022/10/19 08:33:25;;;;;;;1.80;0.75;;;;;;;;;;5137496;27;20742;-69
2022/10/19 08:35:53;;;;;;;1.70;1.00;;;;;;;;;;5136992;27;20198;-68
2022/10/19 08:38:22;;;;;;;0.98;0.82;;;;;;;;;;5137858;27;20198;-68
2022/10/19 08:40:49;;;;;;;2.75;0.80;;;;;;;;;;5138255;27;20314;-68
2022/10/19 08:43:21;;;;;;;1.83;0.73;;;;;;;;;;5137042;27;20697;-68
2022/10/19 08:45:54;;;;;;;1.95;1.00;;;;;;;;;;5137676;27;20213;-69
2022/10/19 08:48:31;;;;;;;1.25;0.88;;;;;;;;;;5120163;27;20255;-69
2022/10/19 08:51:00;;;;;;;2.03;1.08;;;;;;;;;;5115869;27;20207;-68
2022/10/19 08:53:37;;;;;;;0.80;0.80;;;;;;;;;;5127595;27;20896;-69
2022/10/19 08:56:10;;;;;;;1.13;1.00;;;;;;;;;;5117142;28;20499;-69
2022/10/19 08:58:45;;;;;;;1.88;0.90;;;;;;;;;;5116960;28;20295;-70
2022/10/19 09:01:15;;;;;;;1.83;0.80;;;;;;;;;;5116887;28;20253;-68
2022/10/19 09:03:46;;;;;;;3.38;1.10;;;;;;;;;;5119288;27;20259;-73
2022/10/19 09:06:21;;;;;;;1.80;0.80;;;;;;;;;;5137309;27;20553;-70
2022/10/19 09:08:51;;;;;;;0.98;0.80;;;;;;;;;;5116550;28;20202;-68
2022/10/19 09:11:20;;;;;;;1.15;0.80;;;;;;;;;;5115722;28;20350;-70
2022/10/19 09:13:48;;;;;;;2.25;1.20;;;;;;;;;;5118530;27;20198;-69
2022/10/19 09:16:16;;;;;;;1.95;1.00;;;;;;;;;;5137212;27;20210;-69
2022/10/19 09:18:45;;;;;;;1.50;0.88;;;;;;;;;;5136262;27;20209;-68
2022/10/19 09:21:15;;;;;;;4.35;1.10;;;;;;;;;;5131386;27;20263;-69
2022/10/19 09:23:45;;;;;;;1.13;0.82;;;;;;;;;;5117410;27;20254;-69
2022/10/19 09:26:16;;;;;;;3.10;1.23;;;;;;;;;;5137544;27;20234;-69
2022/10/19 09:28:49;;;;;;;2.28;1.00;;;;;;;;;;5136918;27;20302;-69
2022/10/19 09:31:23;;;;;;;1.50;1.00;;;;;;;;;;5135384;27;20321;-70
2022/10/19 09:33:54;;;;;;;1.48;0.80;;;;;;;;;;5135349;27;20198;-69
2022/10/19 09:36:23;;;;;;;1.35;0.95;;;;;;;;;;5134318;27;20256;-68
2022/10/19 09:38:51;;;;;;;1.08;0.90;;;;;;;;;;5137039;27;20204;-68
2022/10/19 09:41:22;;;;;;;2.15;1.02;;;;;;;;;;5136665;27;20202;-70
2022/10/19 09:43:52;;;;;;;1.23;1.00;;;;;;;;;;5136157;27;20342;-68
2022/10/19 09:46:35;;;;;;;1.05;0.93;;;;;;;;;;5136480;27;20195;-69
2022/10/19 09:49:04;;;;;;;2.03;1.20;;;;;;;;;;5133360;27;20202;-68
2022/10/19 09:51:40;;;;;;;2.35;0.90;;;;;;;;;;5136232;27;20202;-69
2022/10/19 09:54:23;;;;;;;1.60;0.93;;;;;;;;;;5135566;27;20200;-69
2022/10/19 09:56:55;;;;;;;1.38;0.90;;;;;;;;;;5135732;27;20566;-69
2022/10/19 09:59:24;;;;;;;2.20;1.13;;;;;;;;;;5136025;27;20297;-69
2022/10/19 10:02:00;;;;;;;3.20;1.10;;;;;;;;;;5136362;27;20296;-69
2022/10/19 10:04:29;;;;;;;1.67;1.20;;;;;;;;;;5135202;27;20278;-69
2022/10/19 10:06:57;;;;;;;2.15;1.00;;;;;;;;;;5136433;27;20209;-69
2022/10/19 10:09:26;;;;;;;1.38;1.00;;;;;;;;;;5135593;27;20234;-69
2022/10/19 10:11:57;;;;;;;1.65;1.00;;;;;;;;;;5135867;27;20259;-69
2022/10/19 10:14:26;;;;;;;1.33;1.00;;;;;;;;;;5135499;27;20239;-68
2022/10/19 10:16:55;;;;;;;1.40;1.10;;;;;;;;;;5135498;28;20535;-69
2022/10/19 10:19:27;;;;;;;1.42;1.00;;;;;;;;;;5135923;28;20293;-68
2022/10/19 10:21:55;;;;;;;1.38;1.10;;;;;;;;;;5136165;27;20237;-68
2022/10/19 10:24:24;;;;;;;1.63;1.10;;;;;;;;;;5139892;27;20318;-68
2022/10/19 10:26:52;;;;;;;1.08;0.90;;;;;;;;;;5139767;27;20325;-68
2022/10/19 10:29:22;;;;;;;1.77;1.20;;;;;;;;;;5140499;27;20237;-68
2022/10/19 10:31:51;;;;;;;1.63;1.15;;;;;;;;;;5138107;27;20227;-69
2022/10/19 10:34:20;;;;;;;1.85;1.10;;;;;;;;;;5138972;27;20190;-69
2022/10/19 10:36:50;;;;;;;1.73;1.13;;;;;;;;;;5139989;27;20208;-68
2022/10/19 10:39:19;;;;;;;1.20;1.10;;;;;;;;;;5140073;27;20721;-68
2022/10/19 10:41:48;;;;;;;1.98;1.17;;;;;;;;;;5139813;27;20202;-68
2022/10/19 10:44:19;;;;;;;1.80;1.08;;;;;;;;;;5139124;27;20803;-68
2022/10/19 10:46:52;;;;;;;1.85;1.00;;;;;;;;;;5139345;27;20266;-68
2022/10/19 10:49:22;;;;;;;1.35;1.10;;;;;;;;;;5138494;27;20670;-68
2022/10/19 10:51:51;;;;;;;2.08;1.15;;;;;;;;;;5139715;27;20285;-68
2022/10/19 10:54:20;;;;;;;1.40;1.10;;;;;;;;;;5138912;27;20293;-68
2022/10/19 10:56:58;;;;;;;2.42;1.30;;;;;;;;;;5139085;27;20206;-68
2022/10/19 10:59:28;;;;;;;3.17;1.23;;;;;;;;;;5138969;27;20262;-69
2022/10/19 11:02:01;;;;;;;1.90;1.20;;;;;;;;;;5139100;27;20263;-68
2022/10/19 11:04:31;;;;;;;1.40;1.30;;;;;;;;;;5137780;27;20249;-68
2022/10/19 11:07:01;;;;;;;1.23;1.10;;;;;;;;;;5137648;27;20241;-69
2022/10/19 11:09:32;;;;;;;1.63;1.10;;;;;;;;;;5137740;27;20259;-68
2022/10/19 11:12:02;;;;;;;1.70;1.10;;;;;;;;;;5138492;27;20242;-68
2022/10/19 11:14:32;;;;;;;1.20;1.10;;;;;;;;;;5137982;27;20235;-68
2022/10/19 11:17:05;;;;;;;1.35;1.00;;;;;;;;;;5138652;27;20198;-68
2022/10/19 11:19:35;;;;;;;2.30;1.08;;;;;;;;;;5138824;27;20262;-68
2022/10/19 11:22:07;;;;;;;1.50;1.13;;;;;;;;;;5138832;27;20198;-68
2022/10/19 11:24:38;;;;;;;1.90;1.10;;;;;;;;;;5137947;27;20633;-68
2022/10/19 11:27:12;;;;;;;3.85;1.30;;;;;;;;;;5139581;27;20689;-68
2022/10/19 11:29:50;;;;;;;2.47;1.10;;;;;;;;;;5139232;27;20292;-68
2022/10/19 11:32:22;;;;;;;2.88;1.58;;;;;;;;;;5139009;27;20696;-69
2022/10/19 11:34:56;;;;;;;1.70;1.40;;;;;;;;;;5138470;27;20250;-68
2022/10/19 11:37:29;;;;;;;2.22;1.20;;;;;;;;;;5138674;27;20198;-68
2022/10/19 11:40:03;;;;;;;3.10;1.38;;;;;;;;;;5137949;27;20201;-69
2022/10/19 11:42:39;;;;;;;2.65;1.20;;;;;;;;;;5138106;27;20244;-68
2022/10/19 11:45:12;;;;;;;2.75;1.40;;;;;;;;;;5138976;27;20316;-69
2022/10/19 11:47:52;;;;;;;1.88;1.38;;;;;;;;;;5138393;27;20292;-69
2022/10/19 11:50:29;;;;;;;2.03;1.40;;;;;;;;;;5137899;27;20201;-69
2022/10/19 11:52:59;;;;;;;2.05;1.60;;;;;;;;;;5138135;27;20198;-69
2022/10/19 11:55:31;;;;;;;1.92;1.40;;;;;;;;;;5138381;27;20285;-69
2022/10/19 11:58:05;;;;;;;1.98;1.20;;;;;;;;;;5138002;27;20209;-69
2022/10/19 12:00:38;;;;;;;2.03;1.55;;;;;;;;;;5137791;27;20267;-69
2022/10/19 12:03:29;;;;;;;2.72;1.33;;;;;;;;;;5138978;27;20333;-69
2022/10/19 12:06:06;;;;;;;2.95;1.65;;;;;;;;;;5137388;27;20295;-68
2022/10/19 12:08:42;;;;;;;1.95;1.40;;;;;;;;;;5137973;27;20223;-68
2022/10/19 12:11:19;;;;;;;2.08;1.40;;;;;;;;;;5138276;27;20278;-69
2022/10/19 12:13:49;;;;;;;2.08;1.50;;;;;;;;;;5137455;27;20305;-69
2022/10/19 12:16:18;;;;;;;1.50;1.35;;;;;;;;;;5137364;27;20593;-68
2022/10/19 12:18:47;;;;;;;2.42;1.65;;;;;;;;;;5138209;27;20255;-68
2022/10/19 12:21:21;;;;;;;2.15;1.67;;;;;;;;;;5137723;27;20297;-68
2022/10/19 12:23:49;;;;;;;2.65;1.58;;;;;;;;;;5137558;27;20225;-68
2022/10/19 12:26:18;;;;;;;1.85;1.60;;;;;;;;;;5137352;27;20245;-69
2022/10/19 12:28:48;;;;;;;2.50;1.40;;;;;;;;;;5136894;27;20251;-69
2022/10/19 12:31:16;;;;;;;3.45;1.40;;;;;;;;;;5137480;27;20263;-69
2022/10/19 12:33:47;;;;;;;1.90;1.58;;;;;;;;;;5137719;27;20278;-68
2022/10/19 12:36:26;;;;;;;1.88;1.70;;;;;;;;;;5137814;27;20194;-68
2022/10/19 12:38:57;;;;;;;2.25;1.65;;;;;;;;;;5137414;27;20232;-68
2022/10/19 12:41:28;;;;;;;2.58;1.48;;;;;;;;;;5137213;27;20241;-69
2022/10/19 12:44:16;;;;;;;1.73;1.30;;;;;;;;;;5136273;27;20251;-68
2022/10/19 12:46:45;;;;;;;1.77;1.38;;;;;;;;;;5128686;27;20289;-68
2022/10/19 12:49:43;;;;;;;3.33;1.67;;;;;;;;;;5137442;27;20258;-69
2022/10/19 12:52:13;;;;;;;2.28;1.60;;;;;;;;;;5034006;28;20304;-69
2022/10/19 12:54:42;;;;;;;1.95;1.50;;;;;;;;;;5113488;27;20271;-69
2022/10/19 12:57:27;;;;;;;1.90;1.40;;;;;;;;;;5136935;27;20761;-69
2022/10/19 13:00:12;;;;;;;2.60;1.50;;;;;;;;;;5136309;27;20202;-70
2022/10/19 13:02:40;;;;;;;1.40;1.23;;;;;;;;;;5133733;27;20226;-68
2022/10/19 13:05:08;;;;;;;1.50;1.30;;;;;;;;;;5135214;27;20227;-68
2022/10/19 13:07:37;;;;;;;1.40;1.30;;;;;;;;;;5135908;27;20224;-70
2022/10/19 13:10:06;;;;;;;2.22;1.50;;;;;;;;;;5135269;27;20285;-68
2022/10/19 13:12:44;;;;;;;1.70;1.15;;;;;;;;;;5135338;27;20209;-68
2022/10/19 13:15:30;;;;;;;4.03;1.48;;;;;;;;;;5136236;27;20206;-68
2022/10/19 13:17:58;;;;;;;2.63;1.40;;;;;;;;;;5134694;27;20326;-68
2022/10/19 13:20:44;;;;;;;1.92;1.40;;;;;;;;;;5135611;27;20221;-70
2022/10/19 13:23:44;;;;;;;1.60;1.38;;;;;;;;;;5135305;27;20212;-68
2022/10/19 13:26:31;;;;;;;2.33;1.20;;;;;;;;;;5032841;28;20201;-69
2022/10/19 13:28:58;;;;;;;1.75;1.20;;;;;;;;;;5127435;27;20294;-68
2022/10/19 13:31:27;;;;;;;1.98;1.20;;;;;;;;;;5135110;27;20305;-69
2022/10/19 13:33:55;;;;;;;1.92;1.23;;;;;;;;;;5134962;27;20297;-68
2022/10/19 13:36:23;;;;;;;2.30;1.50;;;;;;;;;;5117721;27;20289;-68
2022/10/19 13:39:21;;;;;;;2.25;1.42;;;;;;;;;;5135226;27;20486;-68
2022/10/19 13:41:52;;;;;;;2.55;1.30;;;;;;;;;;5031135;28;20209;-69
2022/10/19 13:44:21;;;;;;;1.50;1.23;;;;;;;;;;5112913;27;20218;-69
2022/10/19 13:46:59;;;;;;;2.30;1.33;;;;;;;;;;5135236;27;20198;-69
2022/10/19 13:49:35;;;;;;;2.13;1.38;;;;;;;;;;5135736;27;20204;-68
2022/10/19 13:52:18;;;;;;;1.40;1.30;;;;;;;;;;5115670;28;20648;-69
2022/10/19 13:55:13;;;;;;;1.40;1.20;;;;;;;;;;5115679;28;20234;-71
2022/10/19 13:57:49;;;;;;;1.38;1.10;;;;;;;;;;5114595;28;20268;-69
2022/10/19 14:00:17;;;;;;;1.98;1.20;;;;;;;;;;5120816;27;20198;-68
2022/10/19 14:03:02;;;;;;;1.20;1.10;;;;;;;;;;5135522;27;20233;-69
2022/10/19 14:05:44;;;;;;;1.80;1.27;;;;;;;;;;5134926;27;20222;-69
2022/10/19 14:08:20;;;;;;;2.00;1.30;;;;;;;;;;5134590;27;20245;-69
2022/10/19 14:10:50;;;;;;;2.00;1.30;;;;;;;;;;5134215;27;20258;-69
2022/10/19 14:13:21;;;;;;;1.90;1.40;;;;;;;;;;5134306;27;20296;-69
2022/10/19 14:15:52;;;;;;;2.25;1.23;;;;;;;;;;5134619;27;20296;-69
2022/10/19 14:18:24;;;;;;;1.27;1.17;;;;;;;;;;5135187;27;20194;-68
2022/10/19 14:20:57;;;;;;;1.30;1.20;;;;;;;;;;5134663;28;20312;-69
2022/10/19 14:23:25;;;;;;;1.30;1.20;;;;;;;;;;5134330;28;20259;-69
2022/10/19 14:25:55;;;;;;;1.40;1.10;;;;;;;;;;5134333;28;20230;-69
2022/10/19 14:28:24;;;;;;;1.80;1.33;;;;;;;;;;5135384;28;20233;-69
2022/10/19 14:30:55;;;;;;;1.20;1.10;;;;;;;;;;5135007;28;20206;-68
2022/10/19 14:33:24;;;;;;;1.40;1.20;;;;;;;;;;5134806;28;20601;-70
2022/10/19 14:35:52;;;;;;;1.40;1.27;;;;;;;;;;5134912;28;20209;-69
2022/10/19 14:38:22;;;;;;;1.15;1.08;;;;;;;;;;5133819;28;20675;-69
2022/10/19 14:40:50;;;;;;;2.40;1.30;;;;;;;;;;5133875;28;20624;-68
2022/10/19 14:43:20;;;;;;;1.42;1.08;;;;;;;;;;5134144;28;20202;-68
2022/10/19 14:46:03;;;;;;;1.15;1.05;;;;;;;;;;5134837;28;20226;-68
2022/10/19 14:48:32;;;;;;;1.80;1.10;;;;;;;;;;5134562;28;20248;-68
2022/10/19 14:50:59;;;;;;;1.50;1.38;;;;;;;;;;5134823;28;20221;-68
2022/10/19 14:53:33;;;;;;;2.05;1.30;;;;;;;;;;5135524;28;20210;-70
2022/10/19 14:56:02;;;;;;;1.77;1.40;;;;;;;;;;5134858;28;20645;-68
2022/10/19 14:58:32;;;;;;;1.98;1.23;;;;;;;;;;5134123;28;20225;-68
2022/10/19 15:01:00;;;;;;;1.30;1.20;;;;;;;;;;5133964;28;20772;-68